Time;durP1;ratioP1;P1;durP2;ratioP2;P2;SDS_P1;SDS_P2;PMS_P1;PMS_P2;Temp;Humidity;BMP_temperature;BMP_pressure;BME280_temperature;BME280_humidity;BME280_pressure;Samples;Min_cycle;Max_cycle;Signal;HPM_P1;HPM_P2
2022/09/13 00:04:45;;;;;;;9.13;7.20;;;16.70;97.10;;;;;;20584623;28;20647;-72
2022/09/13 00:14:47;;;;;;;9.13;7.13;;;16.60;97.00;;;;;;20594407;28;20242;-71
2022/09/13 00:24:49;;;;;;;8.07;6.80;;;16.50;97.10;;;;;;20581470;28;20273;-72
2022/09/13 00:34:50;;;;;;;9.90;7.17;;;16.40;97.20;;;;;;20597949;28;20238;-71
2022/09/13 00:45:04;;;;;;;8.37;7.30;;;16.20;97.20;;;;;;20597401;28;20292;-71
2022/09/13 00:55:13;;;;;;;11.00;7.70;;;16.10;97.20;;;;;;20596571;28;20238;-71
2022/09/13 01:05:17;;;;;;;9.00;7.30;;;16.00;97.40;;;;;;20595488;28;20218;-73
2022/09/13 01:15:19;;;;;;;12.07;7.23;;;15.80;97.40;;;;;;20594693;28;20247;-71
2022/09/13 01:25:31;;;;;;;9.43;7.17;;;15.80;97.50;;;;;;20594003;28;20214;-70
2022/09/13 01:35:58;;;;;;;9.07;6.87;;;15.70;97.60;;;;;;20593232;28;20638;-71
2022/09/13 01:46:34;;;;;;;8.50;6.90;;;15.70;97.70;;;;;;20592536;28;20234;-71
2022/09/13 01:57:00;;;;;;;9.10;7.30;;;15.70;97.70;;;;;;20592089;28;20294;-71
2022/09/13 02:07:32;;;;;;;9.80;7.13;;;15.70;97.70;;;;;;20590766;28;20254;-72
2022/09/13 02:17:40;;;;;;;12.03;7.60;;;15.60;97.60;;;;;;20586740;28;20233;-72
2022/09/13 02:27:47;;;;;;;12.03;7.53;;;15.60;97.80;;;;;;20572485;28;20244;-72
2022/09/13 02:37:56;;;;;;;8.50;7.20;;;15.60;97.90;;;;;;20571329;28;20207;-71
2022/09/13 02:48:19;;;;;;;10.67;7.73;;;15.50;97.80;;;;;;20588270;28;20238;-71
2022/09/13 02:58:41;;;;;;;10.17;6.93;;;15.40;97.80;;;;;;20587732;28;20285;-72
2022/09/13 03:08:42;;;;;;;9.00;7.20;;;15.30;97.80;;;;;;20587334;28;20242;-71
2022/09/13 03:19:07;;;;;;;11.27;7.13;;;15.30;97.90;;;;;;20586283;28;20242;-72
2022/09/13 03:29:32;;;;;;;9.43;6.93;;;15.30;97.80;;;;;;20585931;28;20312;-71
2022/09/13 03:39:53;;;;;;;10.83;7.70;;;15.10;97.70;;;;;;20586109;28;20264;-70
2022/09/13 03:49:56;;;;;;;10.70;7.97;;;15.00;97.80;;;;;;20596119;28;20237;-71
2022/09/13 03:59:57;;;;;;;12.60;9.43;;;15.00;98.00;;;;;;20600661;28;20224;-72
2022/09/13 04:10:00;;;;;;;14.60;9.70;;;14.80;98.50;;;;;;20600048;28;20276;-71
2022/09/13 04:20:02;;;;;;;17.47;12.90;;;14.90;98.80;;;;;;20598891;28;20265;-73
2022/09/13 04:30:04;;;;;;;16.57;11.00;;;15.00;98.90;;;;;;20598081;28;20296;-71
2022/09/13 04:40:07;;;;;;;22.03;11.83;;;14.90;99.00;;;;;;20596276;28;20206;-72
2022/09/13 04:50:08;;;;;;;14.57;10.73;;;14.90;99.20;;;;;;20596415;28;20715;-71
2022/09/13 05:00:11;;;;;;;15.30;10.93;;;15.00;99.20;;;;;;20594642;28;20665;-71
2022/09/13 05:10:13;;;;;;;21.20;12.37;;;15.00;99.20;;;;;;20596143;28;20616;-73
2022/09/13 05:20:20;;;;;;;16.07;11.60;;;15.00;99.20;;;;;;20593723;28;20669;-71
2022/09/13 05:30:21;;;;;;;22.33;13.03;;;15.10;99.30;;;;;;20592536;28;20253;-70
2022/09/13 05:40:23;;;;;;;15.70;10.30;;;15.10;99.30;;;;;;20670828;28;20217;-66
2022/09/13 05:50:25;;;;;;;13.10;9.90;;;15.20;99.40;;;;;;20670526;28;20252;-71
2022/09/13 06:00:53;;;;;;;21.13;13.27;;;15.20;99.20;;;;;;20670585;28;20242;-70
2022/09/13 06:11:03;;;;;;;25.30;13.83;;;15.30;99.20;;;;;;20668793;28;20237;-71
2022/09/13 06:21:16;;;;;;;20.13;13.03;;;15.50;99.30;;;;;;20668074;28;20238;-70
2022/09/13 06:31:20;;;;;;;14.43;10.50;;;15.50;99.20;;;;;;20668108;28;20244;-74
2022/09/13 06:41:23;;;;;;;19.47;10.40;;;15.70;99.20;;;;;;20667522;28;20569;-74
2022/09/13 06:51:25;;;;;;;14.77;9.63;;;15.80;99.10;;;;;;20666681;28;20238;-79
2022/09/13 07:01:45;;;;;;;15.73;9.90;;;15.90;99.00;;;;;;20666016;28;20213;-80
2022/09/13 07:11:49;;;;;;;23.90;10.13;;;16.10;98.90;;;;;;20666112;28;20265;-78
2022/09/13 07:21:51;;;;;;;22.07;12.67;;;16.30;98.70;;;;;;20665098;28;20262;-80
2022/09/13 07:31:55;;;;;;;21.20;12.70;;;16.40;98.60;;;;;;20665011;28;20687;-77
2022/09/13 07:41:57;;;;;;;21.47;13.00;;;16.50;98.30;;;;;;20664149;28;20212;-77
2022/09/13 07:51:58;;;;;;;29.20;13.40;;;16.60;98.20;;;;;;20664010;28;20298;-78
2022/09/13 08:02:00;;;;;;;20.40;11.13;;;16.70;98.10;;;;;;20663348;28;20215;-78
2022/09/13 08:12:02;;;;;;;17.33;10.80;;;16.80;98.20;;;;;;20663718;28;20952;-80
2022/09/13 08:22:04;;;;;;;19.60;12.57;;;17.10;98.00;;;;;;20663287;28;20681;-79
2022/09/13 08:32:05;;;;;;;17.63;10.83;;;17.20;97.90;;;;;;20666552;28;20263;-79
2022/09/13 08:42:25;;;;;;;13.47;10.07;;;17.40;97.90;;;;;;20676764;28;20658;-80
2022/09/13 08:52:54;;;;;;;23.13;13.87;;;17.60;97.70;;;;;;20675786;28;20239;-80
2022/09/13 09:03:10;;;;;;;28.13;18.87;;;17.80;97.60;;;;;;20661905;28;20605;-69
2022/09/13 09:13:26;;;;;;;19.83;13.67;;;17.90;97.50;;;;;;20673954;28;20773;-81
2022/09/13 09:24:03;;;;;;;19.10;12.07;;;18.10;97.40;;;;;;20674046;28;20206;-81
2022/09/13 09:34:41;;;;;;;12.87;8.93;;;18.20;97.20;;;;;;20577394;28;20603;-79
2022/09/13 09:44:48;;;;;;;13.10;8.17;;;18.40;97.10;;;;;;20672267;28;20240;-71
2022/09/13 09:54:50;;;;;;;10.73;8.23;;;18.80;96.90;;;;;;20670945;28;20656;-70
2022/09/13 10:04:58;;;;;;;8.67;6.73;;;19.10;96.60;;;;;;20670060;28;20270;-70
2022/09/13 10:15:17;;;;;;;7.83;6.70;;;19.40;96.30;;;;;;20669092;28;20240;-70
2022/09/13 10:25:25;;;;;;;11.30;6.93;;;19.70;95.80;;;;;;20667938;28;20258;-71
2022/09/13 10:35:28;;;;;;;12.53;6.83;;;19.80;95.60;;;;;;20666034;28;20294;-71
2022/09/13 10:45:31;;;;;;;13.50;7.70;;;19.80;95.50;;;;;;20665558;28;20258;-70
2022/09/13 10:55:35;;;;;;;13.63;7.50;;;19.70;95.50;;;;;;20627232;28;20237;-71
2022/09/13 11:05:40;;;;;;;12.83;8.70;;;19.70;95.80;;;;;;20654217;28;20687;-71
2022/09/13 11:16:02;;;;;;;16.57;10.23;;;19.70;96.00;;;;;;20599742;28;20246;-71
2022/09/13 11:26:34;;;;;;;13.33;10.43;;;19.60;96.30;;;;;;20665950;28;20682;-71
2022/09/13 11:37:20;;;;;;;15.10;10.70;;;19.70;96.80;;;;;;20665416;28;20285;-72
2022/09/13 11:47:52;;;;;;;20.13;13.33;;;19.70;97.40;;;;;;20647493;28;20248;-73
2022/09/13 11:58:20;;;;;;;22.77;11.37;;;19.80;98.20;;;;;;20663468;28;20209;-72
2022/09/13 12:08:28;;;;;;;14.57;9.87;;;19.90;98.40;;;;;;20664700;28;20240;-70
2022/09/13 12:18:38;;;;;;;14.13;8.93;;;20.00;98.60;;;;;;20679067;28;20234;-71
2022/09/13 12:28:47;;;;;;;10.57;8.23;;;20.20;98.80;;;;;;20677684;28;20716;-70
2022/09/13 12:39:22;;;;;;;10.07;7.20;;;20.50;98.90;;;;;;20677287;28;20213;-71
2022/09/13 12:49:51;;;;;;;9.10;5.50;;;20.80;98.70;;;;;;20676210;28;20304;-70
2022/09/13 13:00:10;;;;;;;14.63;4.93;;;20.90;98.40;;;;;;20675429;28;20644;-70
2022/09/13 13:10:25;;;;;;;7.33;4.90;;;20.90;98.10;;;;;;20673373;28;20248;-70
2022/09/13 13:20:55;;;;;;;5.60;4.30;;;21.00;98.00;;;;;;20673589;28;20234;-72
2022/09/13 13:30:57;;;;;;;3.80;3.40;;;21.10;97.80;;;;;;20670957;28;20244;-78
2022/09/13 13:41:37;;;;;;;5.37;4.80;;;21.30;97.50;;;;;;20666467;28;20205;-74
2022/09/13 13:51:39;;;;;;;4.20;3.70;;;21.40;97.30;;;;;;20670457;28;20229;-72
2022/09/13 14:01:46;;;;;;;4.17;3.77;;;21.40;97.30;;;;;;20666368;28;20206;-72
2022/09/13 14:12:23;;;;;;;7.77;4.80;;;21.50;97.20;;;;;;20671069;28;20237;-72
2022/09/13 14:22:26;;;;;;;4.50;3.90;;;21.50;97.10;;;;;;20650093;28;20210;-70
2022/09/13 14:32:31;;;;;;;6.77;3.73;;;21.50;97.10;;;;;;20665527;28;20267;-68
2022/09/13 14:42:51;;;;;;;4.63;3.20;;;21.50;97.00;;;;;;20667648;28;20300;-78
2022/09/13 14:52:56;;;;;;;6.57;4.50;;;21.50;96.90;;;;;;20693069;28;20235;-74
2022/09/13 15:03:02;;;;;;;6.37;3.50;;;21.50;96.90;;;;;;20748848;28;20232;-74
2022/09/13 15:13:04;;;;;;;4.43;3.30;;;21.70;96.80;;;;;;20674705;28;20294;-75
2022/09/13 15:23:14;;;;;;;3.87;2.83;;;21.80;96.30;;;;;;20749097;28;20258;-74
2022/09/13 15:33:29;;;;;;;3.80;3.40;;;21.80;95.70;;;;;;20670057;28;20225;-76
2022/09/13 15:43:30;;;;;;;3.10;2.70;;;21.80;95.60;;;;;;20674955;28;20256;-77
2022/09/13 15:53:34;;;;;;;2.97;2.20;;;21.80;95.50;;;;;;20682080;28;20648;-77
2022/09/13 16:03:36;;;;;;;6.87;3.17;;;21.70;94.80;;;;;;20706684;28;20208;-77
2022/09/13 16:13:37;;;;;;;6.60;4.30;;;21.60;94.40;;;;;;20682692;28;20233;-78
2022/09/13 16:23:39;;;;;;;4.13;3.23;;;21.40;94.40;;;;;;20680035;28;20246;-76
2022/09/13 16:33:41;;;;;;;4.13;3.20;;;21.30;95.20;;;;;;20678588;28;20236;-72
2022/09/13 16:43:43;;;;;;;5.50;3.50;;;21.30;96.30;;;;;;20678423;28;20216;-78
2022/09/13 16:53:45;;;;;;;5.23;3.50;;;21.10;97.20;;;;;;20674728;28;20229;-78
2022/09/13 17:03:47;;;;;;;6.90;4.00;;;21.10;98.10;;;;;;20594946;28;20549;-81
2022/09/13 17:13:55;;;;;;;8.87;4.73;;;21.00;98.70;;;;;;20595178;28;20738;-81
2022/09/13 17:23:57;;;;;;;10.53;3.87;;;20.90;99.20;;;;;;20595238;28;20215;-82
2022/09/13 17:33:58;;;;;;;10.27;4.27;;;20.90;99.50;;;;;;20593892;28;20249;-80
2022/09/13 17:44:00;;;;;;;6.70;3.70;;;20.80;99.60;;;;;;20593061;28;20663;-79
2022/09/13 17:54:08;;;;;;;7.30;3.80;;;20.70;99.60;;;;;;20592501;28;20241;-77
2022/09/13 18:04:11;;;;;;;5.67;4.07;;;20.60;99.80;;;;;;20592999;28;20206;-79
2022/09/13 18:14:15;;;;;;;6.50;4.20;;;20.60;99.90;;;;;;20632715;28;20267;-78
2022/09/13 18:24:17;;;;;;;7.50;3.60;;;20.50;99.90;;;;;;20650879;28;20578;-81
2022/09/13 18:34:18;;;;;;;9.67;4.20;;;20.40;99.90;;;;;;20668891;28;20272;-78
2022/09/13 18:44:20;;;;;;;6.73;3.73;;;20.30;99.90;;;;;;20668770;28;20216;-81
2022/09/13 18:54:22;;;;;;;11.40;4.00;;;20.30;99.90;;;;;;20664664;28;20240;-73
2022/09/13 19:04:24;;;;;;;5.77;4.20;;;20.20;99.90;;;;;;20665969;28;20208;-73
2022/09/13 19:14:27;;;;;;;7.60;4.17;;;20.20;99.90;;;;;;20664744;28;20245;-76
2022/09/13 19:24:29;;;;;;;11.30;4.50;;;20.10;99.90;;;;;;20665436;28;20217;-70
2022/09/13 19:34:31;;;;;;;10.83;4.47;;;20.10;99.90;;;;;;20619878;28;20245;-78
2022/09/13 19:44:33;;;;;;;8.53;5.00;;;20.00;99.90;;;;;;20583447;28;20615;-76
2022/09/13 19:54:34;;;;;;;6.77;4.90;;;20.00;99.90;;;;;;20583189;28;20292;-77
2022/09/13 20:04:36;;;;;;;6.00;5.20;;;20.00;99.90;;;;;;20553301;28;20256;-71
2022/09/13 20:14:38;;;;;;;7.37;4.70;;;20.00;99.90;;;;;;20589618;28;20783;-77
2022/09/13 20:24:40;;;;;;;6.70;5.53;;;19.90;99.90;;;;;;20608724;28;20211;-76
2022/09/13 20:34:41;;;;;;;7.77;5.47;;;19.90;99.90;;;;;;20596623;28;20312;-76
2022/09/13 20:44:44;;;;;;;6.63;5.33;;;19.90;99.90;;;;;;20596480;28;20205;-74
2022/09/13 20:54:46;;;;;;;12.77;5.40;;;19.90;99.90;;;;;;20598725;28;20260;-74
2022/09/13 21:04:48;;;;;;;5.73;4.70;;;19.80;99.90;;;;;;20629181;28;20867;-78
2022/09/13 21:14:50;;;;;;;6.13;4.63;;;20.00;99.90;;;;;;20594005;28;20260;-79
2022/09/13 21:24:51;;;;;;;5.27;4.60;;;19.70;99.90;;;;;;20595471;28;20268;-78
2022/09/13 21:34:53;;;;;;;7.23;4.90;;;19.70;99.90;;;;;;20594709;28;20240;-80
2022/09/13 21:44:57;;;;;;;6.80;5.00;;;19.60;99.90;;;;;;20593174;28;20218;-81
2022/09/13 21:54:58;;;;;;;8.03;6.20;;;19.60;99.90;;;;;;20592785;28;20269;-74
2022/09/13 22:05:00;;;;;;;15.90;4.67;;;19.60;99.90;;;;;;20592269;28;20223;-75
2022/09/13 22:15:02;;;;;;;6.87;4.30;;;19.50;99.90;;;;;;20595988;28;20243;-70
2022/09/13 22:25:05;;;;;;;6.57;4.53;;;19.40;99.90;;;;;;20667135;28;20205;-77
2022/09/13 22:35:08;;;;;;;7.40;4.97;;;19.40;99.90;;;;;;20668845;28;20282;-76
2022/09/13 22:45:10;;;;;;;9.90;6.07;;;19.40;99.90;;;;;;20669482;28;20274;-76
2022/09/13 22:55:11;;;;;;;6.03;4.70;;;19.30;99.90;;;;;;20668386;28;20254;-77
2022/09/13 23:05:13;;;;;;;8.27;4.87;;;19.30;99.90;;;;;;20668738;28;20211;-79
2022/09/13 23:15:15;;;;;;;9.80;4.60;;;19.30;99.90;;;;;;20667292;28;20656;-79
2022/09/13 23:25:17;;;;;;;10.43;5.07;;;19.30;99.90;;;;;;20667099;28;20214;-78
2022/09/13 23:35:19;;;;;;;6.83;5.23;;;19.30;99.90;;;;;;20668736;28;20236;-79
2022/09/13 23:45:21;;;;;;;7.77;5.50;;;19.30;99.90;;;;;;20666129;28;20665;-78
2022/09/13 23:55:23;;;;;;;8.47;5.40;;;19.30;99.90;;;;;;20665996;28;20236;-79
